LLFK weather

Fiq Airfield
Katzrin, Northern District, Israel

Public forecast

Using degrees Celsius for public forecast. Weather courtesy of forecast.io.

METAR (pilot weather report)

Report is more than 6 hours old.

Closest report is Ben Ya'akov Airport, 13.8 nm (25.6 km) NNW. Retrieved 2019/09/16 14:50 UTC (11 hours ago):

LLIB 161450Z 30010KT 9999 SCT050 29/18 Q1012

TAF (pilot weather forecast)

Forecast is more than 12 hours old.

Closest forecast is Ben Ya'akov Airport, 13.8 nm (25.6 km) NNW. Retrieved 2019/09/16 12:00 UTC (13 hours ago):

TAF LLIB 161114Z 1612/1712 23011KT 9999 SCT035 BECMG 1613/1615 31012KT 9999 FEW030 BECMG 1617/1619 VRB04KT CAVOK BECMG 1704/1706 16007KT BECMG 1709/1711 34010KT TX32/1613Z TN18/1704Z